Puerto Barrios, Guatemala

10:39 AM CST on August 04, 2015 (GMT -0600)
Puerto Barrios | | Change Station
CLOSE
Current Station
Airport
Location: Puerto Barrios,
Elevation: 3 ft
Nearby Weather Stations

Elev 3 ft 15.73 °N, 88.58 °W | Updated 39 minutes ago

Partly Cloudy
Partly Cloudy
88 °F
Feels Like 100 °F
N
0
Wind Variable Wind from North

Today
High -- | Low -- °F
--% Chance of Precip.
Yesterday
High -- | Low -- °F
Precip. -- in
5:36 AM 6:23 PM
Waning Gibbous, 76% visible
Pressure 29.92 in
Visibility 6.2 miles
Clouds Few 2000 ft
Heat Index 100 °F
Dew Point 77 °F
Humidity 70%
Rainfall 0.00 in
Snow Depth Not available.
UV 9 out of 12
Pollen Not available.
Air Quality Not available.
Flu Activity Not available.
METAR MGPB 041600Z 00000KT 9999 FEW020 31/25 Q1013 A2991 FEW200

More Conditions Fewer Conditions

Pressure 29.92 in
Visibility 6.2 miles
Clouds Few 2000 ft
Heat Index 100 °F
Dew Point 77 °F
Humidity 70%
Rainfall 0.00 in
Snow Depth Not available.
UV 9 out of 12
Pollen Not available.
Air Quality Not available.
Flu Activity Not available.
METAR MGPB 041600Z 00000KT 9999 FEW020 31/25 Q1013 A2991 FEW200

More Conditions Fewer Conditions

10-Day Weather Forecast

×

Almanac

Astronomy

Aug. 04, 2015 Rise Set
Actual Time
Civil Twilight
Nautical Twilight
Astronomical Twilight
Moon
Length of Visible Light
Length of Day
Tomorrow will be .
, % of the Moon is Illuminated

Today's Extremes

Country Highs Country Lows

Community

WunderPhotos

Upload Photos

1,843,919 photos uploaded!

WunderBlogs® & News

Nearby

Air Quality

  Air Quality AQ Index Pollutant
Not available.

Snow Depth

Station Depth Elevation

Earthquake Activity

City Distance Mag. Time & Date
Minimum magnitude displayed is 2.5.

Coastal Water Temperatures

Place Temperature

Stations

Nearby Weather Stations

Station Location Temp. Windchill Dew Point Humidity Wind Precip. Elev Updated Type